sensor_id;sensor_type;location;lat;lon;timestamp;P1;durP1;ratioP1;P2;durP2;ratioP2
56039;SDS011;43937;41.366;2.072;2023-06-22T00:03:07;11.48;;;3.78;;
56039;SDS011;43937;41.366;2.072;2023-06-22T00:05:33;14.38;;;4.32;;
56039;SDS011;43937;41.366;2.072;2023-06-22T00:09:59;19.50;;;4.13;;
56039;SDS011;43937;41.366;2.072;2023-06-22T00:12:25;11.23;;;3.88;;
56039;SDS011;43937;41.366;2.072;2023-06-22T00:14:50;13.25;;;3.55;;
56039;SDS011;43937;41.366;2.072;2023-06-22T00:17:15;14.63;;;3.15;;
56039;SDS011;43937;41.366;2.072;2023-06-22T00:19:41;12.38;;;4.13;;
56039;SDS011;43937;41.366;2.072;2023-06-22T00:22:07;12.13;;;4.00;;
56039;SDS011;43937;41.366;2.072;2023-06-22T00:24:32;14.13;;;3.70;;
56039;SDS011;43937;41.366;2.072;2023-06-22T00:26:57;18.50;;;3.90;;
56039;SDS011;43937;41.366;2.072;2023-06-22T00:29:23;10.60;;;3.25;;
56039;SDS011;43937;41.366;2.072;2023-06-22T00:31:48;14.73;;;4.15;;
56039;SDS011;43937;41.366;2.072;2023-06-22T00:34:14;16.25;;;4.15;;
56039;SDS011;43937;41.366;2.072;2023-06-22T00:36:39;17.02;;;5.15;;
56039;SDS011;43937;41.366;2.072;2023-06-22T00:39:05;23.38;;;3.50;;
56039;SDS011;43937;41.366;2.072;2023-06-22T00:41:32;10.98;;;3.60;;
56039;SDS011;43937;41.366;2.072;2023-06-22T00:43:57;10.77;;;3.10;;
56039;SDS011;43937;41.366;2.072;2023-06-22T00:46:23;17.00;;;3.63;;
56039;SDS011;43937;41.366;2.072;2023-06-22T00:48:50;19.67;;;4.63;;
56039;SDS011;43937;41.366;2.072;2023-06-22T00:51:17;11.15;;;3.65;;
56039;SDS011;43937;41.366;2.072;2023-06-22T00:53:42;11.15;;;4.53;;
56039;SDS011;43937;41.366;2.072;2023-06-22T00:56:08;10.20;;;3.55;;
56039;SDS011;43937;41.366;2.072;2023-06-22T00:58:34;14.93;;;4.50;;
56039;SDS011;43937;41.366;2.072;2023-06-22T01:01:01;16.27;;;3.78;;
56039;SDS011;43937;41.366;2.072;2023-06-22T01:03:27;14.77;;;4.38;;
56039;SDS011;43937;41.366;2.072;2023-06-22T01:05:53;18.45;;;4.38;;
56039;SDS011;43937;41.366;2.072;2023-06-22T01:13:53;12.40;;;4.40;;
56039;SDS011;43937;41.366;2.072;2023-06-22T01:16:29;17.55;;;4.72;;
56039;SDS011;43937;41.366;2.072;2023-06-22T01:18:57;19.17;;;4.33;;
56039;SDS011;43937;41.366;2.072;2023-06-22T01:21:28;9.60;;;3.28;;
56039;SDS011;43937;41.366;2.072;2023-06-22T01:26:54;13.98;;;4.78;;
56039;SDS011;43937;41.366;2.072;2023-06-22T01:29:30;12.38;;;4.85;;
56039;SDS011;43937;41.366;2.072;2023-06-22T01:31:57;10.70;;;3.75;;
56039;SDS011;43937;41.366;2.072;2023-06-22T01:34:24;15.93;;;4.82;;
56039;SDS011;43937;41.366;2.072;2023-06-22T01:36:50;16.40;;;3.80;;
56039;SDS011;43937;41.366;2.072;2023-06-22T01:39:17;12.10;;;3.92;;
56039;SDS011;43937;41.366;2.072;2023-06-22T01:41:43;19.17;;;4.85;;
56039;SDS011;43937;41.366;2.072;2023-06-22T01:44:09;16.15;;;5.28;;
56039;SDS011;43937;41.366;2.072;2023-06-22T01:46:36;16.40;;;5.20;;
56039;SDS011;43937;41.366;2.072;2023-06-22T01:49:02;14.32;;;3.67;;
56039;SDS011;43937;41.366;2.072;2023-06-22T01:51:29;12.57;;;3.95;;
56039;SDS011;43937;41.366;2.072;2023-06-22T01:53:55;16.63;;;4.93;;
56039;SDS011;43937;41.366;2.072;2023-06-22T01:56:20;12.48;;;4.03;;
56039;SDS011;43937;41.366;2.072;2023-06-22T01:58:57;12.18;;;4.38;;
56039;SDS011;43937;41.366;2.072;2023-06-22T02:01:33;14.32;;;5.40;;
56039;SDS011;43937;41.366;2.072;2023-06-22T02:04:09;11.88;;;4.60;;
56039;SDS011;43937;41.366;2.072;2023-06-22T02:06:39;14.98;;;4.47;;
56039;SDS011;43937;41.366;2.072;2023-06-22T02:09:12;15.95;;;4.20;;
56039;SDS011;43937;41.366;2.072;2023-06-22T02:11:42;15.98;;;4.53;;
56039;SDS011;43937;41.366;2.072;2023-06-22T02:14:10;17.60;;;4.50;;
56039;SDS011;43937;41.366;2.072;2023-06-22T02:16:38;23.98;;;4.82;;
56039;SDS011;43937;41.366;2.072;2023-06-22T02:19:04;9.20;;;4.32;;
56039;SDS011;43937;41.366;2.072;2023-06-22T02:21:31;22.73;;;5.18;;
56039;SDS011;43937;41.366;2.072;2023-06-22T02:23:57;16.98;;;5.03;;
56039;SDS011;43937;41.366;2.072;2023-06-22T02:26:23;9.50;;;4.05;;
56039;SDS011;43937;41.366;2.072;2023-06-22T02:28:50;20.98;;;5.38;;
56039;SDS011;43937;41.366;2.072;2023-06-22T02:31:16;15.43;;;5.53;;
56039;SDS011;43937;41.366;2.072;2023-06-22T02:33:42;23.95;;;5.90;;
56039;SDS011;43937;41.366;2.072;2023-06-22T02:36:08;12.18;;;4.95;;
56039;SDS011;43937;41.366;2.072;2023-06-22T02:38:37;18.88;;;4.93;;
56039;SDS011;43937;41.366;2.072;2023-06-22T02:41:02;22.55;;;4.90;;
56039;SDS011;43937;41.366;2.072;2023-06-22T02:43:28;13.57;;;4.25;;
56039;SDS011;43937;41.366;2.072;2023-06-22T02:45:53;19.20;;;4.65;;
56039;SDS011;43937;41.366;2.072;2023-06-22T02:48:19;12.23;;;4.65;;
56039;SDS011;43937;41.366;2.072;2023-06-22T02:50:44;16.85;;;4.65;;
56039;SDS011;43937;41.366;2.072;2023-06-22T02:53:25;13.38;;;4.65;;
56039;SDS011;43937;41.366;2.072;2023-06-22T02:55:50;11.52;;;3.72;;
56039;SDS011;43937;41.366;2.072;2023-06-22T02:58:16;22.40;;;5.55;;
56039;SDS011;43937;41.366;2.072;2023-06-22T03:00:41;22.27;;;5.75;;
56039;SDS011;43937;41.366;2.072;2023-06-22T03:03:07;20.33;;;5.40;;
56039;SDS011;43937;41.366;2.072;2023-06-22T03:05:32;23.88;;;5.55;;
56039;SDS011;43937;41.366;2.072;2023-06-22T03:08:00;19.58;;;5.57;;
56039;SDS011;43937;41.366;2.072;2023-06-22T03:10:25;11.07;;;4.30;;
56039;SDS011;43937;41.366;2.072;2023-06-22T03:12:51;15.05;;;5.15;;
56039;SDS011;43937;41.366;2.072;2023-06-22T03:15:16;11.30;;;4.15;;
56039;SDS011;43937;41.366;2.072;2023-06-22T03:17:42;12.70;;;4.60;;
56039;SDS011;43937;41.366;2.072;2023-06-22T03:20:08;16.38;;;4.55;;
56039;SDS011;43937;41.366;2.072;2023-06-22T03:22:37;12.05;;;3.90;;
56039;SDS011;43937;41.366;2.072;2023-06-22T03:25:06;12.82;;;4.22;;
56039;SDS011;43937;41.366;2.072;2023-06-22T03:27:38;12.60;;;4.50;;
56039;SDS011;43937;41.366;2.072;2023-06-22T03:30:04;13.20;;;3.35;;
56039;SDS011;43937;41.366;2.072;2023-06-22T03:32:30;12.70;;;4.70;;
56039;SDS011;43937;41.366;2.072;2023-06-22T03:34:55;13.27;;;3.60;;
56039;SDS011;43937;41.366;2.072;2023-06-22T03:37:23;14.40;;;4.22;;
56039;SDS011;43937;41.366;2.072;2023-06-22T03:39:52;14.38;;;4.68;;
56039;SDS011;43937;41.366;2.072;2023-06-22T03:42:18;14.38;;;4.63;;
56039;SDS011;43937;41.366;2.072;2023-06-22T03:44:43;11.68;;;3.72;;
56039;SDS011;43937;41.366;2.072;2023-06-22T03:47:09;10.32;;;3.10;;
56039;SDS011;43937;41.366;2.072;2023-06-22T03:49:34;9.77;;;3.45;;
56039;SDS011;43937;41.366;2.072;2023-06-22T03:52:00;9.23;;;3.35;;
56039;SDS011;43937;41.366;2.072;2023-06-22T03:54:27;12.00;;;4.25;;
56039;SDS011;43937;41.366;2.072;2023-06-22T03:57:33;15.43;;;3.55;;
56039;SDS011;43937;41.366;2.072;2023-06-22T03:59:59;14.57;;;4.60;;
56039;SDS011;43937;41.366;2.072;2023-06-22T04:02:25;12.70;;;4.63;;
56039;SDS011;43937;41.366;2.072;2023-06-22T04:04:50;13.40;;;4.38;;
56039;SDS011;43937;41.366;2.072;2023-06-22T04:07:16;10.52;;;4.22;;
56039;SDS011;43937;41.366;2.072;2023-06-22T04:09:42;11.05;;;4.68;;
56039;SDS011;43937;41.366;2.072;2023-06-22T04:12:08;7.82;;;3.60;;
56039;SDS011;43937;41.366;2.072;2023-06-22T04:14:34;10.02;;;3.60;;
56039;SDS011;43937;41.366;2.072;2023-06-22T04:17:00;12.25;;;3.55;;
56039;SDS011;43937;41.366;2.072;2023-06-22T04:19:25;7.43;;;3.00;;
56039;SDS011;43937;41.366;2.072;2023-06-22T04:21:50;11.23;;;3.38;;
56039;SDS011;43937;41.366;2.072;2023-06-22T04:24:16;10.32;;;3.50;;
56039;SDS011;43937;41.366;2.072;2023-06-22T04:26:41;6.07;;;2.40;;
56039;SDS011;43937;41.366;2.072;2023-06-22T04:29:10;10.02;;;2.97;;
56039;SDS011;43937;41.366;2.072;2023-06-22T04:31:36;7.13;;;3.08;;
56039;SDS011;43937;41.366;2.072;2023-06-22T04:34:02;10.93;;;3.60;;
56039;SDS011;43937;41.366;2.072;2023-06-22T04:36:40;12.52;;;3.40;;
56039;SDS011;43937;41.366;2.072;2023-06-22T04:41:36;12.30;;;3.92;;
56039;SDS011;43937;41.366;2.072;2023-06-22T04:44:09;17.42;;;3.67;;
56039;SDS011;43937;41.366;2.072;2023-06-22T04:48:22;10.23;;;2.78;;
56039;SDS011;43937;41.366;2.072;2023-06-22T04:50:48;10.73;;;3.13;;
56039;SDS011;43937;41.366;2.072;2023-06-22T04:53:13;4.43;;;2.78;;
56039;SDS011;43937;41.366;2.072;2023-06-22T04:55:39;9.30;;;2.90;;
56039;SDS011;43937;41.366;2.072;2023-06-22T04:58:06;8.02;;;2.83;;
56039;SDS011;43937;41.366;2.072;2023-06-22T05:00:32;5.88;;;2.47;;
56039;SDS011;43937;41.366;2.072;2023-06-22T05:03:01;7.72;;;2.20;;
56039;SDS011;43937;41.366;2.072;2023-06-22T05:05:28;10.95;;;3.10;;
56039;SDS011;43937;41.366;2.072;2023-06-22T05:07:56;6.50;;;2.55;;
56039;SDS011;43937;41.366;2.072;2023-06-22T05:10:24;5.97;;;2.40;;
56039;SDS011;43937;41.366;2.072;2023-06-22T05:12:50;5.57;;;2.08;;
56039;SDS011;43937;41.366;2.072;2023-06-22T05:15:16;6.30;;;1.75;;
56039;SDS011;43937;41.366;2.072;2023-06-22T05:17:44;5.57;;;1.95;;
56039;SDS011;43937;41.366;2.072;2023-06-22T05:20:10;4.40;;;1.35;;
56039;SDS011;43937;41.366;2.072;2023-06-22T05:22:37;8.07;;;2.08;;
56039;SDS011;43937;41.366;2.072;2023-06-22T05:25:03;2.92;;;1.25;;
56039;SDS011;43937;41.366;2.072;2023-06-22T05:27:31;5.80;;;1.58;;
56039;SDS011;43937;41.366;2.072;2023-06-22T05:31:49;13.65;;;1.80;;
56039;SDS011;43937;41.366;2.072;2023-06-22T05:34:15;4.90;;;1.42;;
56039;SDS011;43937;41.366;2.072;2023-06-22T05:37:08;10.48;;;1.92;;
56039;SDS011;43937;41.366;2.072;2023-06-22T05:39:34;8.80;;;1.73;;
56039;SDS011;43937;41.366;2.072;2023-06-22T05:42:03;8.57;;;1.95;;
56039;SDS011;43937;41.366;2.072;2023-06-22T05:44:30;3.85;;;1.10;;
56039;SDS011;43937;41.366;2.072;2023-06-22T05:46:55;4.85;;;1.45;;
56039;SDS011;43937;41.366;2.072;2023-06-22T05:49:20;7.90;;;1.63;;
56039;SDS011;43937;41.366;2.072;2023-06-22T05:51:47;4.63;;;1.70;;
56039;SDS011;43937;41.366;2.072;2023-06-22T05:54:12;6.43;;;1.58;;
56039;SDS011;43937;41.366;2.072;2023-06-22T05:56:40;3.10;;;1.13;;
56039;SDS011;43937;41.366;2.072;2023-06-22T05:59:06;18.75;;;10.35;;
56039;SDS011;43937;41.366;2.072;2023-06-22T06:01:31;27.30;;;2.10;;
56039;SDS011;43937;41.366;2.072;2023-06-22T06:03:59;4.28;;;1.58;;
56039;SDS011;43937;41.366;2.072;2023-06-22T06:06:25;4.47;;;0.80;;
56039;SDS011;43937;41.366;2.072;2023-06-22T06:08:53;2.83;;;1.17;;
56039;SDS011;43937;41.366;2.072;2023-06-22T06:11:19;4.25;;;1.60;;
56039;SDS011;43937;41.366;2.072;2023-06-22T06:15:56;6.07;;;1.58;;
56039;SDS011;43937;41.366;2.072;2023-06-22T06:18:22;4.78;;;1.15;;
56039;SDS011;43937;41.366;2.072;2023-06-22T06:20:48;3.42;;;1.33;;
56039;SDS011;43937;41.366;2.072;2023-06-22T06:23:13;2.13;;;1.20;;
56039;SDS011;43937;41.366;2.072;2023-06-22T06:25:39;10.75;;;1.63;;
56039;SDS011;43937;41.366;2.072;2023-06-22T06:28:04;5.68;;;1.30;;
56039;SDS011;43937;41.366;2.072;2023-06-22T06:30:30;3.45;;;1.30;;
56039;SDS011;43937;41.366;2.072;2023-06-22T06:32:55;6.97;;;1.15;;
56039;SDS011;43937;41.366;2.072;2023-06-22T06:35:21;3.35;;;1.25;;
56039;SDS011;43937;41.366;2.072;2023-06-22T06:37:47;3.22;;;0.77;;
56039;SDS011;43937;41.366;2.072;2023-06-22T06:40:14;6.78;;;0.85;;
56039;SDS011;43937;41.366;2.072;2023-06-22T06:42:41;6.00;;;1.52;;
56039;SDS011;43937;41.366;2.072;2023-06-22T06:45:10;9.55;;;2.28;;
56039;SDS011;43937;41.366;2.072;2023-06-22T06:47:54;3.47;;;1.38;;
56039;SDS011;43937;41.366;2.072;2023-06-22T06:50:20;3.42;;;1.40;;
56039;SDS011;43937;41.366;2.072;2023-06-22T06:52:46;0.95;;;0.68;;
56039;SDS011;43937;41.366;2.072;2023-06-22T06:55:11;3.60;;;1.30;;
56039;SDS011;43937;41.366;2.072;2023-06-22T06:57:40;6.43;;;1.30;;
56039;SDS011;43937;41.366;2.072;2023-06-22T07:00:10;2.45;;;1.02;;
56039;SDS011;43937;41.366;2.072;2023-06-22T07:02:42;2.58;;;1.08;;
56039;SDS011;43937;41.366;2.072;2023-06-22T07:05:09;5.30;;;1.08;;
56039;SDS011;43937;41.366;2.072;2023-06-22T07:07:36;2.63;;;0.88;;
56039;SDS011;43937;41.366;2.072;2023-06-22T07:11:33;5.38;;;0.95;;
56039;SDS011;43937;41.366;2.072;2023-06-22T07:14:00;2.85;;;1.10;;
56039;SDS011;43937;41.366;2.072;2023-06-22T07:16:26;7.80;;;1.92;;
56039;SDS011;43937;41.366;2.072;2023-06-22T07:18:53;2.95;;;1.50;;
56039;SDS011;43937;41.366;2.072;2023-06-22T07:21:18;2.28;;;1.10;;
56039;SDS011;43937;41.366;2.072;2023-06-22T07:24:46;4.63;;;1.40;;
56039;SDS011;43937;41.366;2.072;2023-06-22T07:27:12;5.05;;;1.35;;
56039;SDS011;43937;41.366;2.072;2023-06-22T07:29:37;2.90;;;1.23;;
56039;SDS011;43937;41.366;2.072;2023-06-22T07:32:05;4.97;;;1.52;;
56039;SDS011;43937;41.366;2.072;2023-06-22T07:34:31;2.30;;;1.00;;
56039;SDS011;43937;41.366;2.072;2023-06-22T07:36:56;7.55;;;1.40;;
56039;SDS011;43937;41.366;2.072;2023-06-22T07:39:22;3.22;;;1.05;;
56039;SDS011;43937;41.366;2.072;2023-06-22T07:41:50;7.40;;;1.48;;
56039;SDS011;43937;41.366;2.072;2023-06-22T07:45:21;2.05;;;0.80;;
56039;SDS011;43937;41.366;2.072;2023-06-22T07:47:59;6.68;;;1.50;;
56039;SDS011;43937;41.366;2.072;2023-06-22T07:50:24;1.73;;;1.05;;
56039;SDS011;43937;41.366;2.072;2023-06-22T07:52:50;4.32;;;1.38;;
56039;SDS011;43937;41.366;2.072;2023-06-22T07:57:00;4.18;;;1.30;;
56039;SDS011;43937;41.366;2.072;2023-06-22T07:59:25;4.88;;;1.50;;
56039;SDS011;43937;41.366;2.072;2023-06-22T08:01:51;20.75;;;1.33;;
56039;SDS011;43937;41.366;2.072;2023-06-22T08:04:16;3.00;;;0.90;;
56039;SDS011;43937;41.366;2.072;2023-06-22T08:06:41;3.13;;;1.00;;
56039;SDS011;43937;41.366;2.072;2023-06-22T08:09:08;4.53;;;1.27;;
56039;SDS011;43937;41.366;2.072;2023-06-22T08:11:34;6.18;;;1.73;;
56039;SDS011;43937;41.366;2.072;2023-06-22T08:13:59;2.20;;;1.08;;
56039;SDS011;43937;41.366;2.072;2023-06-22T08:16:25;4.05;;;1.38;;
56039;SDS011;43937;41.366;2.072;2023-06-22T08:18:51;1.88;;;1.00;;
56039;SDS011;43937;41.366;2.072;2023-06-22T08:21:16;4.88;;;1.25;;
56039;SDS011;43937;41.366;2.072;2023-06-22T08:23:42;2.47;;;1.10;;
56039;SDS011;43937;41.366;2.072;2023-06-22T08:26:07;5.00;;;1.30;;
56039;SDS011;43937;41.366;2.072;2023-06-22T08:28:32;6.32;;;1.02;;
56039;SDS011;43937;41.366;2.072;2023-06-22T08:30:59;5.40;;;1.30;;
56039;SDS011;43937;41.366;2.072;2023-06-22T08:33:26;6.45;;;1.33;;
56039;SDS011;43937;41.366;2.072;2023-06-22T08:35:53;2.42;;;0.90;;
56039;SDS011;43937;41.366;2.072;2023-06-22T08:38:20;4.13;;;0.85;;
56039;SDS011;43937;41.366;2.072;2023-06-22T08:40:45;4.95;;;1.42;;
56039;SDS011;43937;41.366;2.072;2023-06-22T08:43:11;5.07;;;1.60;;
56039;SDS011;43937;41.366;2.072;2023-06-22T08:55:18;70.80;;;6.03;;
56039;SDS011;43937;41.366;2.072;2023-06-22T08:57:43;15.50;;;2.53;;
56039;SDS011;43937;41.366;2.072;2023-06-22T09:00:09;1.13;;;0.88;;
56039;SDS011;43937;41.366;2.072;2023-06-22T09:02:45;3.67;;;1.33;;
56039;SDS011;43937;41.366;2.072;2023-06-22T09:05:11;3.75;;;1.02;;
56039;SDS011;43937;41.366;2.072;2023-06-22T09:10:02;3.83;;;0.98;;
56039;SDS011;43937;41.366;2.072;2023-06-22T09:12:31;3.83;;;0.93;;
56039;SDS011;43937;41.366;2.072;2023-06-22T09:14:58;3.13;;;0.80;;
56039;SDS011;43937;41.366;2.072;2023-06-22T09:17:25;8.50;;;1.50;;
56039;SDS011;43937;41.366;2.072;2023-06-22T09:19:50;12.02;;;1.45;;
56039;SDS011;43937;41.366;2.072;2023-06-22T09:22:16;9.73;;;1.10;;
56039;SDS011;43937;41.366;2.072;2023-06-22T09:24:42;2.55;;;0.90;;
56039;SDS011;43937;41.366;2.072;2023-06-22T09:27:07;3.58;;;1.00;;
56039;SDS011;43937;41.366;2.072;2023-06-22T09:29:33;1.92;;;0.77;;
56039;SDS011;43937;41.366;2.072;2023-06-22T09:31:59;4.10;;;1.35;;
56039;SDS011;43937;41.366;2.072;2023-06-22T09:34:27;2.00;;;1.15;;
56039;SDS011;43937;41.366;2.072;2023-06-22T09:36:52;9.68;;;4.72;;
56039;SDS011;43937;41.366;2.072;2023-06-22T09:39:18;3.40;;;1.35;;
56039;SDS011;43937;41.366;2.072;2023-06-22T09:41:44;4.78;;;1.00;;
56039;SDS011;43937;41.366;2.072;2023-06-22T09:44:09;7.68;;;1.38;;
56039;SDS011;43937;41.366;2.072;2023-06-22T09:46:35;4.15;;;1.30;;
56039;SDS011;43937;41.366;2.072;2023-06-22T09:49:00;8.13;;;1.20;;
56039;SDS011;43937;41.366;2.072;2023-06-22T09:51:26;3.22;;;1.35;;
56039;SDS011;43937;41.366;2.072;2023-06-22T09:53:51;5.28;;;1.10;;
56039;SDS011;43937;41.366;2.072;2023-06-22T09:56:20;3.83;;;1.10;;
56039;SDS011;43937;41.366;2.072;2023-06-22T09:58:46;3.63;;;1.08;;
56039;SDS011;43937;41.366;2.072;2023-06-22T10:01:12;4.65;;;1.17;;
56039;SDS011;43937;41.366;2.072;2023-06-22T10:03:41;1.95;;;0.95;;
56039;SDS011;43937;41.366;2.072;2023-06-22T10:06:07;3.67;;;0.68;;
56039;SDS011;43937;41.366;2.072;2023-06-22T10:08:33;8.23;;;1.77;;
56039;SDS011;43937;41.366;2.072;2023-06-22T10:10:59;1.90;;;1.00;;
56039;SDS011;43937;41.366;2.072;2023-06-22T10:13:24;3.95;;;1.27;;
56039;SDS011;43937;41.366;2.072;2023-06-22T10:15:50;1.48;;;0.90;;
56039;SDS011;43937;41.366;2.072;2023-06-22T10:18:17;3.28;;;1.30;;
56039;SDS011;43937;41.366;2.072;2023-06-22T10:20:43;3.28;;;0.88;;
56039;SDS011;43937;41.366;2.072;2023-06-22T10:23:09;7.72;;;1.70;;
56039;SDS011;43937;41.366;2.072;2023-06-22T10:25:34;5.55;;;1.05;;
56039;SDS011;43937;41.366;2.072;2023-06-22T10:28:00;3.55;;;1.08;;
56039;SDS011;43937;41.366;2.072;2023-06-22T10:30:25;1.05;;;0.70;;
56039;SDS011;43937;41.366;2.072;2023-06-22T10:32:51;1.77;;;0.82;;
56039;SDS011;43937;41.366;2.072;2023-06-22T10:35:16;1.92;;;1.20;;
56039;SDS011;43937;41.366;2.072;2023-06-22T10:37:43;1.23;;;0.60;;
56039;SDS011;43937;41.366;2.072;2023-06-22T10:40:09;1.42;;;1.08;;
56039;SDS011;43937;41.366;2.072;2023-06-22T10:42:35;2.67;;;1.13;;
56039;SDS011;43937;41.366;2.072;2023-06-22T10:45:01;2.08;;;0.73;;
56039;SDS011;43937;41.366;2.072;2023-06-22T10:48:29;1.85;;;0.80;;
56039;SDS011;43937;41.366;2.072;2023-06-22T10:50:55;3.33;;;1.17;;
56039;SDS011;43937;41.366;2.072;2023-06-22T10:53:21;4.05;;;1.50;;
56039;SDS011;43937;41.366;2.072;2023-06-22T10:55:46;2.50;;;1.20;;
56039;SDS011;43937;41.366;2.072;2023-06-22T10:58:12;5.18;;;1.17;;
56039;SDS011;43937;41.366;2.072;2023-06-22T11:00:38;5.25;;;1.13;;
56039;SDS011;43937;41.366;2.072;2023-06-22T11:03:03;4.88;;;1.08;;
56039;SDS011;43937;41.366;2.072;2023-06-22T11:05:29;3.72;;;0.90;;
56039;SDS011;43937;41.366;2.072;2023-06-22T11:09:10;1.40;;;0.70;;
56039;SDS011;43937;41.366;2.072;2023-06-22T11:11:36;4.07;;;1.00;;
56039;SDS011;43937;41.366;2.072;2023-06-22T11:14:02;2.25;;;0.80;;
56039;SDS011;43937;41.366;2.072;2023-06-22T11:16:27;4.55;;;0.80;;
56039;SDS011;43937;41.366;2.072;2023-06-22T11:18:52;2.45;;;0.73;;
56039;SDS011;43937;41.366;2.072;2023-06-22T11:21:18;2.55;;;0.90;;
56039;SDS011;43937;41.366;2.072;2023-06-22T11:23:43;1.80;;;0.90;;
56039;SDS011;43937;41.366;2.072;2023-06-22T11:26:10;2.35;;;0.88;;
56039;SDS011;43937;41.366;2.072;2023-06-22T11:28:35;2.28;;;0.90;;
56039;SDS011;43937;41.366;2.072;2023-06-22T11:31:00;3.70;;;0.82;;
56039;SDS011;43937;41.366;2.072;2023-06-22T11:35:28;2.45;;;1.08;;
56039;SDS011;43937;41.366;2.072;2023-06-22T11:37:53;1.77;;;1.00;;
56039;SDS011;43937;41.366;2.072;2023-06-22T11:40:21;1.80;;;1.05;;
56039;SDS011;43937;41.366;2.072;2023-06-22T11:42:47;3.03;;;1.00;;
56039;SDS011;43937;41.366;2.072;2023-06-22T11:45:13;1.02;;;0.70;;
56039;SDS011;43937;41.366;2.072;2023-06-22T11:47:38;2.55;;;1.05;;
56039;SDS011;43937;41.366;2.072;2023-06-22T11:51:10;1.33;;;1.08;;
56039;SDS011;43937;41.366;2.072;2023-06-22T11:53:36;6.88;;;1.00;;
56039;SDS011;43937;41.366;2.072;2023-06-22T11:56:01;1.38;;;0.68;;
56039;SDS011;43937;41.366;2.072;2023-06-22T11:58:27;2.15;;;1.08;;
56039;SDS011;43937;41.366;2.072;2023-06-22T12:00:53;1.05;;;0.85;;
56039;SDS011;43937;41.366;2.072;2023-06-22T12:03:19;4.03;;;1.15;;
56039;SDS011;43937;41.366;2.072;2023-06-22T12:05:46;2.17;;;1.05;;
56039;SDS011;43937;41.366;2.072;2023-06-22T12:08:12;4.38;;;1.02;;
56039;SDS011;43937;41.366;2.072;2023-06-22T12:10:38;1.95;;;1.20;;
56039;SDS011;43937;41.366;2.072;2023-06-22T12:13:04;3.33;;;1.20;;
56039;SDS011;43937;41.366;2.072;2023-06-22T12:15:29;1.13;;;0.88;;
56039;SDS011;43937;41.366;2.072;2023-06-22T12:17:55;2.85;;;1.27;;
56039;SDS011;43937;41.366;2.072;2023-06-22T12:20:20;1.50;;;0.80;;
56039;SDS011;43937;41.366;2.072;2023-06-22T12:22:46;1.88;;;0.88;;
56039;SDS011;43937;41.366;2.072;2023-06-22T12:25:12;10.85;;;0.90;;
56039;SDS011;43937;41.366;2.072;2023-06-22T12:27:38;3.33;;;1.10;;
56039;SDS011;43937;41.366;2.072;2023-06-22T12:30:06;5.50;;;1.08;;
56039;SDS011;43937;41.366;2.072;2023-06-22T12:32:33;5.15;;;0.90;;
56039;SDS011;43937;41.366;2.072;2023-06-22T12:34:58;1.45;;;0.80;;
56039;SDS011;43937;41.366;2.072;2023-06-22T12:37:24;1.75;;;0.93;;
56039;SDS011;43937;41.366;2.072;2023-06-22T12:39:49;2.05;;;1.08;;
56039;SDS011;43937;41.366;2.072;2023-06-22T12:42:15;2.92;;;1.10;;
56039;SDS011;43937;41.366;2.072;2023-06-22T12:44:41;1.45;;;0.82;;
56039;SDS011;43937;41.366;2.072;2023-06-22T12:47:07;2.70;;;0.90;;
56039;SDS011;43937;41.366;2.072;2023-06-22T12:49:34;2.65;;;0.90;;
56039;SDS011;43937;41.366;2.072;2023-06-22T12:52:00;7.20;;;1.10;;
56039;SDS011;43937;41.366;2.072;2023-06-22T12:54:26;3.47;;;0.80;;
56039;SDS011;43937;41.366;2.072;2023-06-22T12:56:51;1.75;;;1.05;;
56039;SDS011;43937;41.366;2.072;2023-06-22T12:59:17;1.45;;;1.10;;
56039;SDS011;43937;41.366;2.072;2023-06-22T13:01:42;2.33;;;0.80;;
56039;SDS011;43937;41.366;2.072;2023-06-22T13:04:10;3.42;;;1.23;;
56039;SDS011;43937;41.366;2.072;2023-06-22T13:06:38;3.55;;;1.02;;
56039;SDS011;43937;41.366;2.072;2023-06-22T13:09:03;5.05;;;0.98;;
56039;SDS011;43937;41.366;2.072;2023-06-22T13:11:30;4.22;;;1.08;;
56039;SDS011;43937;41.366;2.072;2023-06-22T13:13:55;3.45;;;0.88;;
56039;SDS011;43937;41.366;2.072;2023-06-22T13:16:21;2.17;;;1.15;;
56039;SDS011;43937;41.366;2.072;2023-06-22T13:18:46;10.80;;;1.20;;
56039;SDS011;43937;41.366;2.072;2023-06-22T13:21:11;4.80;;;1.10;;
56039;SDS011;43937;41.366;2.072;2023-06-22T13:23:37;2.38;;;1.10;;
56039;SDS011;43937;41.366;2.072;2023-06-22T13:26:02;4.55;;;1.17;;
56039;SDS011;43937;41.366;2.072;2023-06-22T13:28:28;8.88;;;1.65;;
56039;SDS011;43937;41.366;2.072;2023-06-22T13:30:55;20.83;;;1.83;;
56039;SDS011;43937;41.366;2.072;2023-06-22T13:33:20;12.73;;;1.95;;
56039;SDS011;43937;41.366;2.072;2023-06-22T13:35:46;4.47;;;1.27;;
56039;SDS011;43937;41.366;2.072;2023-06-22T13:38:11;9.88;;;1.10;;
56039;SDS011;43937;41.366;2.072;2023-06-22T13:40:37;5.55;;;1.80;;
56039;SDS011;43937;41.366;2.072;2023-06-22T13:43:03;5.03;;;1.40;;
56039;SDS011;43937;41.366;2.072;2023-06-22T13:45:29;1.60;;;0.77;;
56039;SDS011;43937;41.366;2.072;2023-06-22T13:47:55;2.35;;;0.73;;
56039;SDS011;43937;41.366;2.072;2023-06-22T13:50:21;1.70;;;0.75;;
56039;SDS011;43937;41.366;2.072;2023-06-22T13:52:46;1.17;;;0.68;;
56039;SDS011;43937;41.366;2.072;2023-06-22T13:55:11;3.78;;;0.93;;
56039;SDS011;43937;41.366;2.072;2023-06-22T13:57:39;3.88;;;1.08;;
56039;SDS011;43937;41.366;2.072;2023-06-22T14:00:05;1.05;;;0.52;;
56039;SDS011;43937;41.366;2.072;2023-06-22T14:02:32;3.92;;;0.85;;
56039;SDS011;43937;41.366;2.072;2023-06-22T14:04:57;3.05;;;0.90;;
56039;SDS011;43937;41.366;2.072;2023-06-22T14:07:22;9.18;;;1.58;;
56039;SDS011;43937;41.366;2.072;2023-06-22T14:09:49;3.80;;;1.13;;
56039;SDS011;43937;41.366;2.072;2023-06-22T14:12:15;2.63;;;0.90;;
56039;SDS011;43937;41.366;2.072;2023-06-22T14:14:42;0.88;;;0.70;;
56039;SDS011;43937;41.366;2.072;2023-06-22T14:17:08;1.88;;;0.68;;
56039;SDS011;43937;41.366;2.072;2023-06-22T14:19:33;3.33;;;0.75;;
56039;SDS011;43937;41.366;2.072;2023-06-22T14:21:59;3.92;;;0.95;;
56039;SDS011;43937;41.366;2.072;2023-06-22T14:24:24;5.95;;;0.70;;
56039;SDS011;43937;41.366;2.072;2023-06-22T14:26:50;1.05;;;0.73;;
56039;SDS011;43937;41.366;2.072;2023-06-22T14:29:15;3.30;;;1.63;;
56039;SDS011;43937;41.366;2.072;2023-06-22T14:31:44;1.83;;;0.85;;
56039;SDS011;43937;41.366;2.072;2023-06-22T14:34:10;5.63;;;0.77;;
56039;SDS011;43937;41.366;2.072;2023-06-22T14:36:35;2.40;;;0.60;;
56039;SDS011;43937;41.366;2.072;2023-06-22T14:39:01;1.17;;;0.50;;
56039;SDS011;43937;41.366;2.072;2023-06-22T14:41:27;2.65;;;0.65;;
56039;SDS011;43937;41.366;2.072;2023-06-22T14:43:52;4.93;;;0.88;;
56039;SDS011;43937;41.366;2.072;2023-06-22T14:46:18;4.00;;;1.20;;
56039;SDS011;43937;41.366;2.072;2023-06-22T14:48:45;6.00;;;0.73;;
56039;SDS011;43937;41.366;2.072;2023-06-22T14:51:11;1.13;;;0.60;;
56039;SDS011;43937;41.366;2.072;2023-06-22T14:53:36;2.63;;;0.90;;
56039;SDS011;43937;41.366;2.072;2023-06-22T14:56:02;11.27;;;0.88;;
56039;SDS011;43937;41.366;2.072;2023-06-22T14:58:31;4.18;;;1.30;;
56039;SDS011;43937;41.366;2.072;2023-06-22T15:01:03;2.17;;;0.90;;
56039;SDS011;43937;41.366;2.072;2023-06-22T15:03:33;1.60;;;0.90;;
56039;SDS011;43937;41.366;2.072;2023-06-22T15:08:26;1.20;;;0.60;;
56039;SDS011;43937;41.366;2.072;2023-06-22T15:10:52;6.13;;;0.90;;
56039;SDS011;43937;41.366;2.072;2023-06-22T15:13:18;5.43;;;0.80;;
56039;SDS011;43937;41.366;2.072;2023-06-22T15:15:46;6.25;;;1.00;;
56039;SDS011;43937;41.366;2.072;2023-06-22T15:18:13;2.55;;;1.08;;
56039;SDS011;43937;41.366;2.072;2023-06-22T15:20:39;4.82;;;1.13;;
56039;SDS011;43937;41.366;2.072;2023-06-22T15:23:05;5.75;;;1.00;;
56039;SDS011;43937;41.366;2.072;2023-06-22T15:25:33;5.38;;;1.05;;